createdAt,value
2023-04-30T00:00:12.146Z,54.74
2023-04-30T00:03:23.988Z,54.85
2023-04-30T00:06:07.125Z,54.88
2023-04-30T00:08:56.696Z,55.06
2023-04-30T00:11:44.747Z,54.95
2023-04-30T00:14:33.732Z,54.89
2023-04-30T00:17:24.137Z,55.05
2023-04-30T00:20:15.621Z,55.17
2023-04-30T00:23:04.911Z,55.24
2023-04-30T00:25:54.107Z,55.34
2023-04-30T00:28:43.465Z,55.34
2023-04-30T00:31:32.963Z,55.51
2023-04-30T00:34:24.462Z,55.67
2023-04-30T00:37:13.434Z,55.72
2023-04-30T00:40:03.277Z,55.87
2023-04-30T00:42:55.206Z,55.57
2023-04-30T00:45:44.800Z,55.70
2023-04-30T00:48:34.942Z,55.87
2023-04-30T00:51:26.560Z,55.95
2023-04-30T00:54:16.622Z,56.06
2023-04-30T00:59:57.025Z,56.17
2023-04-30T01:02:47.422Z,56.52
2023-04-30T01:05:36.816Z,56.41
2023-04-30T01:08:26.667Z,56.52
2023-04-30T01:11:29.018Z,56.70
2023-04-30T01:14:27.667Z,56.76
2023-04-30T01:17:23.768Z,56.79
2023-04-30T01:20:15.346Z,56.96
2023-04-30T01:23:34.592Z,57.00
2023-04-30T01:26:46.139Z,56.93
2023-04-30T01:29:36.818Z,57.19
2023-04-30T01:32:26.827Z,57.38
2023-04-30T01:35:16.803Z,57.40
2023-04-30T01:38:16.108Z,57.34
2023-04-30T01:41:09.264Z,57.52
2023-04-30T01:44:12.870Z,57.79
2023-04-30T01:47:07.502Z,57.70
2023-04-30T01:50:10.591Z,57.70
2023-04-30T01:53:02.594Z,57.84
2023-04-30T01:55:59.841Z,57.79
2023-04-30T01:58:54.297Z,57.89
2023-04-30T02:01:44.227Z,57.95
2023-04-30T02:04:34.326Z,57.95
2023-04-30T02:07:38.063Z,57.89
2023-04-30T02:10:29.802Z,57.97
2023-04-30T02:13:19.506Z,58.14
2023-04-30T02:16:09.295Z,58.15
2023-04-30T02:18:58.753Z,58.24
2023-04-30T02:21:47.863Z,58.47
2023-04-30T02:24:37.735Z,58.44
2023-04-30T02:27:30.460Z,58.55
2023-04-30T02:30:20.451Z,58.63
2023-04-30T02:33:11.890Z,58.62
2023-04-30T02:36:01.504Z,58.74
2023-04-30T02:38:51.784Z,58.78
2023-04-30T02:41:43.117Z,58.92
2023-04-30T02:44:32.291Z,59.11
2023-04-30T02:47:21.952Z,59.21
2023-04-30T02:50:11.977Z,59.27
2023-04-30T02:53:01.395Z,59.39
2023-04-30T02:55:52.223Z,59.53
2023-04-30T02:58:41.506Z,59.76
2023-04-30T03:01:30.653Z,59.78
2023-04-30T03:04:20.061Z,59.93
2023-04-30T03:07:09.214Z,60.04
2023-04-30T03:09:58.999Z,60.07
2023-04-30T03:12:47.925Z,60.15
2023-04-30T03:15:37.770Z,60.23
2023-04-30T03:18:28.445Z,60.38
2023-04-30T03:21:18.517Z,60.43
2023-04-30T03:24:08.158Z,60.40
2023-04-30T03:26:57.887Z,60.42
2023-04-30T03:29:48.378Z,60.52
2023-04-30T03:32:38.289Z,60.65
2023-04-30T03:35:27.117Z,60.67
2023-04-30T03:38:16.667Z,60.64
2023-04-30T03:41:06.080Z,60.72
2023-04-30T03:43:55.703Z,60.65
2023-04-30T03:46:47.656Z,60.68
2023-04-30T03:49:37.158Z,60.58
2023-04-30T03:52:27.024Z,60.57
2023-04-30T03:55:08.116Z,60.69
2023-04-30T03:57:57.889Z,60.82
2023-04-30T04:00:47.828Z,60.72
2023-04-30T04:03:37.151Z,60.83
2023-04-30T04:06:27.224Z,60.86
2023-04-30T04:09:16.795Z,60.91
2023-04-30T04:12:06.823Z,61.03
2023-04-30T04:14:56.231Z,61.08
2023-04-30T04:17:45.530Z,61.04
2023-04-30T04:20:36.132Z,61.06
2023-04-30T04:23:25.299Z,61.17
2023-04-30T04:26:15.966Z,61.10
2023-04-30T04:29:05.364Z,61.19
2023-04-30T04:31:55.283Z,61.34
2023-04-30T04:34:45.300Z,61.33
2023-04-30T04:37:36.021Z,61.39
2023-04-30T04:40:24.933Z,61.41
2023-04-30T04:43:14.322Z,61.52
2023-04-30T04:46:04.818Z,61.43
2023-04-30T04:48:54.628Z,61.40
2023-04-30T04:51:43.933Z,61.39
2023-04-30T04:54:34.782Z,61.47
2023-04-30T04:57:25.449Z,61.53
2023-04-30T05:00:16.614Z,61.57
2023-04-30T05:03:05.853Z,61.49
2023-04-30T05:05:58.544Z,61.54
2023-04-30T05:08:48.398Z,61.58
2023-04-30T05:11:41.533Z,61.53
2023-04-30T05:14:30.842Z,61.67
2023-04-30T05:17:20.185Z,61.61
2023-04-30T05:20:12.984Z,61.56
2023-04-30T05:23:03.874Z,61.65
2023-04-30T05:25:54.830Z,61.54
2023-04-30T05:28:45.918Z,61.67
2023-04-30T05:31:37.062Z,61.59
2023-04-30T05:34:28.082Z,61.66
2023-04-30T05:37:20.263Z,61.69
2023-04-30T05:40:11.986Z,61.67
2023-04-30T05:42:52.612Z,61.57
2023-04-30T05:45:42.276Z,61.78
2023-04-30T05:48:31.974Z,61.75
2023-04-30T05:51:23.621Z,61.85
2023-04-30T05:54:12.776Z,61.74
2023-04-30T05:57:03.979Z,61.70
2023-04-30T05:59:54.311Z,61.90
2023-04-30T06:02:40.670Z,61.82
2023-04-30T06:05:30.154Z,61.85
2023-04-30T06:08:20.086Z,61.98
2023-04-30T06:11:09.215Z,61.86
2023-04-30T06:13:59.216Z,61.91
2023-04-30T06:16:48.588Z,61.65
2023-04-30T06:19:38.217Z,61.57
2023-04-30T06:22:28.729Z,62.03
2023-04-30T06:25:18.372Z,62.24
2023-04-30T06:28:09.408Z,62.01
2023-04-30T06:30:59.057Z,62.13
2023-04-30T06:33:48.347Z,62.29
2023-04-30T06:36:37.773Z,62.12
2023-04-30T06:39:27.038Z,61.66
2023-04-30T06:42:16.193Z,61.69
2023-04-30T06:45:07.233Z,62.13
2023-04-30T06:47:57.134Z,62.61
2023-04-30T06:50:46.990Z,62.18
2023-04-30T06:53:36.235Z,61.67
2023-04-30T06:56:27.016Z,61.39
2023-04-30T06:59:17.489Z,60.95
2023-04-30T07:02:10.382Z,60.92
2023-04-30T07:04:59.871Z,60.59
2023-04-30T07:07:49.772Z,60.39
2023-04-30T07:10:40.265Z,60.39
2023-04-30T07:13:29.792Z,59.81
2023-04-30T07:16:18.984Z,59.73
2023-04-30T07:19:08.160Z,59.49
2023-04-30T07:21:57.696Z,59.72
2023-04-30T07:24:47.491Z,59.39
2023-04-30T07:27:37.904Z,58.86
2023-04-30T07:30:20.311Z,58.98
2023-04-30T07:33:10.116Z,58.85
2023-04-30T07:36:00.186Z,59.05
2023-04-30T07:38:42.596Z,58.69
2023-04-30T07:41:34.120Z,58.54
2023-04-30T07:44:24.440Z,58.34
2023-04-30T07:47:18.037Z,58.09
2023-04-30T07:50:08.890Z,58.24
2023-04-30T07:52:58.390Z,58.12
2023-04-30T07:55:47.974Z,58.31
2023-04-30T07:58:37.443Z,58.28
2023-04-30T08:01:27.726Z,58.07
2023-04-30T08:04:16.951Z,58.02
2023-04-30T08:07:07.154Z,58.05
2023-04-30T08:09:57.425Z,57.79
2023-04-30T08:12:39.065Z,57.83
2023-04-30T08:15:30.636Z,57.70
2023-04-30T08:18:20.544Z,57.49
2023-04-30T08:21:10.465Z,57.20
2023-04-30T08:23:54.060Z,56.74
2023-04-30T08:26:43.949Z,57.02
2023-04-30T08:29:33.420Z,56.86
2023-04-30T08:32:26.147Z,57.03
2023-04-30T08:35:16.906Z,56.79
2023-04-30T08:38:05.666Z,56.43
2023-04-30T08:41:05.977Z,56.70
2023-04-30T08:44:00.809Z,56.71
2023-04-30T08:46:44.099Z,56.81
2023-04-30T08:49:33.560Z,56.24
2023-04-30T08:52:25.518Z,56.18
2023-04-30T08:55:16.106Z,56.35
2023-04-30T08:58:05.741Z,55.83
2023-04-30T09:00:55.047Z,55.90
2023-04-30T09:03:44.184Z,56.11
2023-04-30T09:06:33.601Z,55.62
2023-04-30T09:09:27.584Z,55.50
2023-04-30T09:12:19.399Z,55.45
2023-04-30T09:15:11.920Z,55.04
2023-04-30T09:18:12.147Z,54.63
2023-04-30T09:21:02.594Z,54.21
2023-04-30T09:24:02.286Z,54.09
2023-04-30T09:26:54.707Z,53.97
2023-04-30T09:29:45.548Z,53.54
2023-04-30T09:32:34.817Z,52.74
2023-04-30T09:35:30.782Z,53.67
2023-04-30T09:38:31.291Z,52.51
2023-04-30T09:41:26.191Z,51.76
2023-04-30T09:44:31.813Z,51.88
2023-04-30T09:47:21.559Z,51.95
2023-04-30T09:50:14.448Z,51.92
2023-04-30T09:53:08.244Z,51.39
2023-04-30T09:56:02.760Z,51.22
2023-04-30T09:58:53.834Z,51.29
2023-04-30T10:01:44.222Z,51.27
2023-04-30T10:04:35.967Z,51.02
2023-04-30T10:07:31.358Z,51.03
2023-04-30T10:10:22.252Z,50.55
2023-04-30T10:13:14.619Z,50.09
2023-04-30T10:16:12.296Z,49.85
2023-04-30T10:18:58.274Z,49.82
2023-04-30T10:21:47.954Z,49.96
2023-04-30T10:24:37.909Z,49.19
2023-04-30T10:27:29.151Z,48.67
2023-04-30T10:30:18.907Z,48.67
2023-04-30T10:33:19.813Z,48.83
2023-04-30T10:36:14.758Z,48.47
2023-04-30T10:38:58.315Z,47.82
2023-04-30T10:41:48.872Z,47.65
2023-04-30T10:44:39.381Z,47.74
2023-04-30T10:47:30.462Z,47.43
2023-04-30T10:50:24.147Z,47.47
2023-04-30T10:53:17.737Z,47.18
2023-04-30T10:56:08.502Z,47.05
2023-04-30T10:59:01.659Z,47.09
2023-04-30T11:01:58.496Z,47.01
2023-04-30T11:05:11.212Z,47.31
2023-04-30T11:08:00.890Z,46.62
2023-04-30T11:11:01.097Z,46.70
2023-04-30T11:14:01.011Z,46.65
2023-04-30T11:16:53.392Z,47.12
2023-04-30T11:19:50.064Z,46.91
2023-04-30T11:22:39.446Z,46.64
2023-04-30T11:25:48.192Z,45.98
2023-04-30T11:28:38.746Z,46.16
2023-04-30T11:31:37.299Z,45.81
2023-04-30T11:34:27.252Z,45.67
2023-04-30T11:37:21.254Z,45.92
2023-04-30T11:40:12.134Z,45.79
2023-04-30T11:43:01.097Z,45.60
2023-04-30T11:46:01.479Z,45.89
2023-04-30T11:48:50.789Z,46.08
2023-04-30T11:51:42.120Z,45.75
2023-04-30T11:54:34.658Z,45.37
2023-04-30T11:57:25.377Z,45.27
2023-04-30T12:00:16.936Z,44.91
2023-04-30T12:03:07.179Z,45.03
2023-04-30T12:05:57.070Z,44.85
2023-04-30T12:08:46.235Z,45.09
2023-04-30T12:11:29.960Z,44.71
2023-04-30T12:14:19.079Z,44.59
2023-04-30T12:17:08.329Z,44.70
2023-04-30T12:19:57.977Z,44.98
2023-04-30T12:22:47.799Z,45.11
2023-04-30T12:25:42.490Z,45.08
2023-04-30T12:28:31.463Z,44.55
2023-04-30T12:31:21.225Z,44.46
2023-04-30T12:34:12.343Z,44.06
2023-04-30T12:37:02.813Z,44.28
2023-04-30T12:39:55.503Z,43.75
2023-04-30T12:42:46.463Z,43.87
2023-04-30T12:45:51.010Z,44.21
2023-04-30T12:48:45.445Z,43.78
2023-04-30T12:51:36.121Z,43.60
2023-04-30T12:54:29.246Z,43.82
2023-04-30T12:57:18.036Z,43.69
2023-04-30T13:00:09.937Z,43.88
2023-04-30T13:02:59.182Z,43.65
2023-04-30T13:05:49.586Z,43.61
2023-04-30T13:08:49.692Z,43.81
2023-04-30T13:11:37.143Z,43.46
2023-04-30T13:14:17.237Z,43.59
2023-04-30T13:17:09.125Z,43.63
2023-04-30T13:19:58.016Z,43.71
2023-04-30T13:22:46.888Z,43.27
2023-04-30T13:25:36.231Z,43.17
2023-04-30T13:28:25.752Z,43.07
2023-04-30T13:31:14.755Z,43.22
2023-04-30T13:34:04.445Z,43.09
2023-04-30T13:36:53.710Z,43.06
2023-04-30T13:39:45.292Z,43.08
2023-04-30T13:42:38.758Z,42.85
2023-04-30T13:45:27.774Z,42.76
2023-04-30T13:48:17.026Z,42.87
2023-04-30T13:51:08.664Z,42.98
2023-04-30T13:53:47.492Z,43.03
2023-04-30T13:56:37.897Z,42.91
2023-04-30T13:59:28.263Z,42.75
2023-04-30T14:02:18.458Z,42.86
2023-04-30T14:05:09.474Z,42.83
2023-04-30T14:07:53.926Z,42.62
2023-04-30T14:10:42.917Z,42.74
2023-04-30T14:13:31.820Z,42.66
2023-04-30T14:16:21.847Z,42.43
2023-04-30T14:19:11.376Z,42.35
2023-04-30T14:22:01.736Z,42.45
2023-04-30T14:24:53.219Z,42.54
2023-04-30T14:27:32.696Z,42.73
2023-04-30T14:30:22.211Z,42.38
2023-04-30T14:33:12.257Z,42.49
2023-04-30T14:36:01.597Z,42.67
2023-04-30T14:38:50.800Z,42.36
2023-04-30T14:41:38.624Z,42.34
2023-04-30T14:44:27.614Z,42.17
2023-04-30T14:47:17.380Z,42.13
2023-04-30T14:50:07.398Z,42.58
2023-04-30T14:52:56.646Z,42.17
2023-04-30T14:55:45.513Z,42.34
2023-04-30T14:58:34.431Z,42.13
2023-04-30T15:01:22.386Z,42.00
2023-04-30T15:04:11.440Z,42.17
2023-04-30T15:07:02.135Z,42.24
2023-04-30T15:09:53.088Z,42.08
2023-04-30T15:12:43.065Z,42.03
2023-04-30T15:15:32.260Z,41.89
2023-04-30T15:18:21.310Z,41.84
2023-04-30T15:21:04.382Z,42.19
2023-04-30T15:23:54.701Z,42.28
2023-04-30T15:26:45.687Z,42.00
2023-04-30T15:29:34.523Z,42.04
2023-04-30T15:32:25.071Z,42.03
2023-04-30T15:35:14.724Z,41.83
2023-04-30T15:38:03.924Z,41.89
2023-04-30T15:40:55.536Z,41.78
2023-04-30T15:43:44.532Z,41.97
2023-04-30T15:46:35.858Z,41.98
2023-04-30T15:49:27.353Z,41.74
2023-04-30T15:52:17.143Z,41.78
2023-04-30T15:55:09.056Z,41.82
2023-04-30T15:57:57.887Z,41.78
2023-04-30T16:00:47.072Z,41.73
2023-04-30T16:03:37.364Z,41.56
2023-04-30T16:06:29.415Z,41.52
2023-04-30T16:09:11.897Z,41.54
2023-04-30T16:12:00.810Z,41.63
2023-04-30T16:14:51.112Z,41.78
2023-04-30T16:17:42.594Z,41.74
2023-04-30T16:20:31.961Z,41.90
2023-04-30T16:23:21.923Z,41.74
2023-04-30T16:26:10.954Z,41.70
2023-04-30T16:29:00.253Z,41.60
2023-04-30T16:31:49.146Z,41.74
2023-04-30T16:34:39.417Z,41.61
2023-04-30T16:37:29.021Z,41.70
2023-04-30T16:40:19.218Z,41.63
2023-04-30T16:43:12.302Z,41.80
2023-04-30T16:46:00.532Z,41.65
2023-04-30T16:48:49.509Z,41.77
2023-04-30T16:51:41.407Z,41.91
2023-04-30T16:54:30.324Z,41.77
2023-04-30T16:57:18.019Z,41.74
2023-04-30T17:00:10.879Z,41.87
2023-04-30T17:03:00.354Z,41.97
2023-04-30T17:05:48.761Z,41.99
2023-04-30T17:08:40.010Z,41.87
2023-04-30T17:11:29.540Z,41.89
2023-04-30T17:14:18.549Z,41.93
2023-04-30T17:17:07.769Z,41.85
2023-04-30T17:19:57.108Z,42.02
2023-04-30T17:22:46.912Z,42.04
2023-04-30T17:25:37.576Z,42.10
2023-04-30T17:28:27.117Z,41.87
2023-04-30T17:31:15.892Z,41.98
2023-04-30T17:34:04.033Z,42.05
2023-04-30T17:36:52.593Z,42.18
2023-04-30T17:39:40.042Z,42.26
2023-04-30T17:42:31.409Z,42.23
2023-04-30T17:45:20.775Z,42.21
2023-04-30T17:48:10.182Z,42.18
2023-04-30T17:51:00.340Z,42.22
2023-04-30T17:53:49.736Z,42.33
2023-04-30T17:56:38.600Z,42.20
2023-04-30T17:59:27.841Z,42.35
2023-04-30T18:02:19.264Z,42.29
2023-04-30T18:05:09.886Z,42.39
2023-04-30T18:07:59.643Z,42.46
2023-04-30T18:10:49.792Z,42.23
2023-04-30T18:13:39.750Z,42.43
2023-04-30T18:16:29.427Z,42.29
2023-04-30T18:19:18.464Z,42.34
2023-04-30T18:22:07.638Z,42.41
2023-04-30T18:24:47.738Z,42.33
2023-04-30T18:27:37.573Z,42.53
2023-04-30T18:30:31.139Z,42.57
2023-04-30T18:33:20.857Z,42.42
2023-04-30T18:36:11.758Z,42.53
2023-04-30T18:39:00.829Z,42.62
2023-04-30T18:41:54.275Z,42.72
2023-04-30T18:44:47.522Z,42.75
2023-04-30T18:47:37.182Z,42.80
2023-04-30T18:50:27.818Z,42.87
2023-04-30T18:53:17.594Z,42.86
2023-04-30T18:56:07.549Z,43.21
2023-04-30T18:58:57.555Z,43.14
2023-04-30T19:01:46.828Z,43.31
2023-04-30T19:04:37.523Z,43.54
2023-04-30T19:07:28.264Z,43.60
2023-04-30T19:10:18.315Z,43.69
2023-04-30T19:13:08.131Z,43.66
2023-04-30T19:16:00.049Z,43.70
2023-04-30T19:18:49.288Z,43.70
2023-04-30T19:21:37.095Z,43.74
2023-04-30T19:24:29.227Z,43.75
2023-04-30T19:27:18.431Z,43.89
2023-04-30T19:30:10.559Z,43.89
2023-04-30T19:32:59.379Z,44.01
2023-04-30T19:35:49.548Z,43.97
2023-04-30T19:38:38.601Z,44.10
2023-04-30T19:41:27.245Z,44.13
2023-04-30T19:44:19.378Z,44.04
2023-04-30T19:47:08.516Z,44.13
2023-04-30T19:49:58.886Z,44.27
2023-04-30T19:52:48.081Z,44.32
2023-04-30T19:55:37.194Z,44.48
2023-04-30T19:58:25.453Z,44.59
2023-04-30T20:01:14.533Z,44.59
2023-04-30T20:04:07.501Z,44.70
2023-04-30T20:06:57.835Z,44.75
2023-04-30T20:09:47.509Z,44.75
2023-04-30T20:12:38.147Z,44.80
2023-04-30T20:15:27.569Z,44.96
2023-04-30T20:18:16.676Z,45.07
2023-04-30T20:21:06.528Z,45.18
2023-04-30T20:23:55.423Z,45.21
2023-04-30T20:26:45.051Z,45.11
2023-04-30T20:29:35.548Z,45.22
2023-04-30T20:32:27.269Z,45.31
2023-04-30T20:35:16.188Z,45.28
2023-04-30T20:38:07.878Z,45.51
2023-04-30T20:40:53.451Z,45.56
2023-04-30T20:43:42.422Z,45.69
2023-04-30T20:46:31.986Z,45.75
2023-04-30T20:49:21.198Z,45.78
2023-04-30T20:52:11.634Z,45.86
2023-04-30T20:55:01.047Z,45.92
2023-04-30T20:57:49.999Z,45.92
2023-04-30T21:00:40.802Z,46.07
2023-04-30T21:03:32.308Z,46.13
2023-04-30T21:06:20.008Z,46.18
2023-04-30T21:09:08.131Z,46.23
2023-04-30T21:11:58.038Z,46.31
2023-04-30T21:14:47.144Z,46.30
2023-04-30T21:17:36.353Z,46.45
2023-04-30T21:20:26.658Z,46.49
2023-04-30T21:23:15.695Z,46.60
2023-04-30T21:26:04.978Z,46.61
2023-04-30T21:28:52.948Z,46.77
2023-04-30T21:31:50.675Z,46.79
2023-04-30T21:34:39.650Z,46.93
2023-04-30T21:37:28.014Z,46.96
2023-04-30T21:40:16.958Z,47.13
2023-04-30T21:43:06.696Z,47.15
2023-04-30T21:46:02.345Z,47.23
2023-04-30T21:48:52.714Z,47.17
2023-04-30T21:51:41.914Z,47.25
2023-04-30T21:54:31.146Z,47.17
2023-04-30T21:57:21.629Z,47.38
2023-04-30T22:00:13.891Z,47.54
2023-04-30T22:03:03.483Z,47.53
2023-04-30T22:05:55.316Z,47.71
2023-04-30T22:08:44.061Z,47.67
2023-04-30T22:11:32.305Z,47.81
2023-04-30T22:14:25.178Z,47.91
2023-04-30T22:17:14.025Z,48.04
2023-04-30T22:20:09.309Z,47.95
2023-04-30T22:22:58.397Z,48.06
2023-04-30T22:25:47.786Z,48.15
2023-04-30T22:28:37.454Z,48.21
2023-04-30T22:31:28.692Z,48.24
2023-04-30T22:34:19.071Z,48.33
2023-04-30T22:37:09.984Z,48.39
2023-04-30T22:40:02.929Z,48.63
2023-04-30T22:42:54.014Z,48.72
2023-04-30T22:45:43.674Z,48.81
2023-04-30T22:48:32.994Z,48.98
2023-04-30T22:51:23.026Z,48.99
2023-04-30T22:54:12.667Z,49.09
2023-04-30T22:57:02.504Z,49.16
2023-04-30T23:00:02.399Z,49.32
2023-04-30T23:02:51.811Z,49.48
2023-04-30T23:05:41.173Z,49.63
2023-04-30T23:08:30.644Z,49.61
2023-04-30T23:11:20.965Z,49.71
2023-04-30T23:14:10.978Z,49.98
2023-04-30T23:17:00.922Z,49.95
2023-04-30T23:19:50.692Z,49.98
2023-04-30T23:22:39.782Z,50.03
2023-04-30T23:25:28.831Z,50.22
2023-04-30T23:28:16.982Z,50.23
2023-04-30T23:31:06.127Z,50.27
2023-04-30T23:33:55.304Z,50.39
2023-04-30T23:36:45.457Z,50.40
2023-04-30T23:39:33.406Z,50.29
2023-04-30T23:42:22.679Z,50.32
2023-04-30T23:45:12.177Z,50.39
2023-04-30T23:48:01.241Z,50.39
2023-04-30T23:51:00.013Z,50.29
2023-04-30T23:53:49.452Z,50.34
2023-04-30T23:56:41.697Z,50.45
2023-04-30T23:59:30.559Z,50.48
